x

Halifax Harbour (44258) Wave Buoy

9:00am - Sat 28th Mar 2015 All times are EDT. -4 hours from GMT.

  • Sig Wave height 9.5ft
  • Peak Period 13s
  • Wind
    13mph, 16mph gusts
  • Air Temp 33°f
  • Sea Pressure 1008.8mb
  • Halifax Harbour
  • Halifax Harbour

More Historic Weather Station data

Upgrade to MSW Pro to gain access to the past 30 days of data for over 8000 Wavebouys and Weather Stations around the globe.

Join Pro

Comparision Forecast

View Surf forecast
   
Sat 03/28 9:00am 9.5ft 13s 13 16 mph 1008.8mb 33f
8:00am 9.5ft 13s 13 18 mph 1009mb 33f
7:00am 9ft 12s 9 13 mph 1008.4mb 34f
6:00am 9ft 13s 9 11 mph 1008.1mb 33f
5:00am 10ft 12s 2 7 mph 1007.6mb 33f
4:00am 9.5ft 12s 4 9 mph 1007.4mb 34f
3:00am 10ft 13s 4 9 mph 1006.3mb 33f
2:00am 9ft 11s 7 9 mph 1006.3mb 34f
1:00am 8.5ft 11s 7 11 mph 1006mb 34f
12:00am 9ft 11s 4 9 mph 1005.1mb 34f
Fri 03/27 11:00pm 9ft 11s 7 11 mph 1005.1mb 35f
10:00pm 9.5ft 12s 9 13 mph 1004.6mb 35f
9:00pm 9.5ft 12s 9 13 mph 1004.3mb 35f
8:00pm 10ft 12s 9 13 mph 1004.9mb 35f
7:00pm 10ft 12s 7 9 mph 1003.8mb 35f
6:00pm 9.5ft 10s 9 13 mph 1003.3mb 35f
5:00pm 10.5ft 11s 9 11 mph 1002.9mb 36f
4:00pm 11ft 12s 4 9 mph 1003mb 35f
3:00pm 10ft 11s 4 7 mph 1002.9mb 35f
2:00pm 10.5ft 11s 4 11 mph 1002mb 35f
1:00pm 9ft 11s 7 9 mph 1002.4mb 36f
12:00pm 10ft 11s 9 11 mph 1002.4mb 35f
11:00am 9ft 11s 11 16 mph 1002.5mb 36f
10:00am 10ft 11s 9 13 mph 1002.9mb 35f
9:00am 10ft 10s 9 11 mph 1002.4mb 36f
8:00am 10ft 10s 7 13 mph 1001.7mb 35f
7:00am 9ft 11s 4 9 mph 1002.1mb 34f
6:00am 10ft 10s 4 9 mph 1002.2mb 34f
5:00am 9ft 10s 4 9 mph 1002mb 35f
4:00am 8ft 10s 2 4 mph 1002.6mb 35f
3:00am 8ft 9s 4 9 mph 1002.7mb 34f
2:00am 7.5ft 9s 9
mph
1003.1mb 36f
1:00am 6ft 9s 9
mph
1003.2mb 37f
12:00am 4.5ft 8s 7 9 mph 1003.7mb 35f
Thu 03/26 11:00pm 3.5ft 6s 9 13 mph 1004.8mb 35f
10:00pm 3ft 6s 7
mph
1005.6mb 35f
9:00pm 3ft 5s 2 4 mph 1006.5mb 33f
8:00pm 3.5ft 6s 2 4 mph 1006.4mb 33f
7:00pm 3.5ft 6s 11 13 mph 1007.1mb 34f
6:00pm 3.5ft 6s 7 9 mph 1007.6mb 33f
5:00pm 4ft 6s 11 16 mph 1008.8mb 34f
4:00pm 4.5ft 6s 16 18 mph 1009mb 34f
3:00pm 4.5ft 5s 18 20 mph 1009.7mb 35f
2:00pm 4ft 6s 18 20 mph 1011.1mb 35f
1:00pm  -   -  18
mph
1012.6mb 35f
12:00pm 4.5ft 5s 18 22 mph 1014.1mb 35f
11:00am 3.5ft 5s 18 25 mph 1014.6mb 35f
10:00am 3ft 5s 20 22 mph 1016.1mb 34f
9:00am 3ft 5s 11 13 mph 1017.6mb 33f
8:00am 3ft 5s 13 16 mph 1018.5mb 33f
7:00am 3ft 4s 18 25 mph 1019.4mb 33f
6:00am 3ft 5s 20 22 mph 1019.9mb 33f
4:00am 2.5ft 5s 13 18 mph 1021.3mb 31f
3:00am 2.5ft 5s 13 16 mph 1022.1mb 31f
2:00am 2.5ft 5s 16 18 mph 1023.4mb 32f
1:00am 2.5ft 4s 13 18 mph 1023.8mb 32f
12:00am 2ft 4s 13
mph
1023.8mb 32f
Wed 03/25 11:00pm 1.6ft 12s 13
mph
1024.3mb 32f
10:00pm 1.3ft 12s 11 13 mph 1024.9mb 32f
9:00pm 1.6ft 8s 9
mph
1025.2mb 31f
8:00pm 1.6ft 8s 11
mph
1025.2mb 32f
7:00pm 1.6ft 9s 4
mph
1025.3mb 32f
6:00pm 1.6ft 11s 7 9 mph 1025.5mb 33f
5:00pm 1.3ft 8s 9 13 mph 1025.2mb 34f
4:00pm 1.3ft 8s 9 11 mph 1025.3mb 33f
3:00pm 1.3ft 8s 11 13 mph 1025.5mb 32f
2:00pm 1.3ft 9s 11 13 mph 1025.4mb 32f
1:00pm 1.3ft 8s 9 11 mph 1025.6mb 32f
12:00pm 1.3ft 7s 9 11 mph 1026mb 32f
11:00am 1.3ft 7s 2 4 mph 1026.3mb 33f
10:00am 1.3ft 9s 2 4 mph 1026.5mb 31f
9:00am 1.3ft 7s 4 7 mph 1026.2mb 30f
8:00am 1.6ft 7s 7 9 mph 1025.9mb 29f
7:00am 1.6ft 7s 4
mph
1025.3mb 29f
6:00am 1.6ft 9s 4
mph
1024.9mb 28f
5:00am 1.6ft 8s 7
mph
1024.6mb 28f
4:00am 1.6ft 8s 7 9 mph 1024.5mb 28f
3:00am 1.6ft 8s 4 7 mph 1024.2mb 28f
2:00am 1.6ft 7s 7
mph
1024.4mb 29f
1:00am 2ft 8s 7 9 mph 1024.3mb 30f
12:00am 2ft 7s 7 9 mph 1024.3mb 29f
Tue 03/24 11:00pm 2ft 7s 9 11 mph 1024.3mb 30f
10:00pm 2ft 7s 11 13 mph 1024.1mb 29f
9:00pm 2ft 8s 11 13 mph 1024mb 29f
8:00pm 2ft 8s 11 13 mph 1023.8mb 29f
7:00pm 2ft 7s 11 13 mph 1023.2mb 30f
6:00pm 2.5ft 8s 11
mph
1022.9mb 30f
5:00pm 2.5ft 7s 11
mph
1022.5mb 30f
4:00pm 2.5ft 8s 11 13 mph 1022.6mb 29f
3:00pm 2.5ft 8s 11 13 mph 1022.4mb 29f